sensor_id;sensor_type;location;lat;lon;timestamp;pressure;altitude;pressure_sealevel;temperature;humidity
9009;BME280;62813;51.424;6.762;2023-03-11T00:02:21;100356.53;;;2.50;86.37
9009;BME280;62813;51.424;6.762;2023-03-11T00:04:48;100365.03;;;2.52;85.71
9009;BME280;62813;51.424;6.762;2023-03-11T00:07:14;100371.00;;;2.54;85.47
9009;BME280;62813;51.424;6.762;2023-03-11T00:09:41;100382.19;;;2.48;85.97
9009;BME280;62813;51.424;6.762;2023-03-11T00:12:07;100379.59;;;2.50;85.45
9009;BME280;62813;51.424;6.762;2023-03-11T00:14:34;100377.94;;;2.46;85.35
9009;BME280;62813;51.424;6.762;2023-03-11T00:17:00;100380.50;;;2.47;85.01
9009;BME280;62813;51.424;6.762;2023-03-11T00:19:27;100395.00;;;2.48;85.67
9009;BME280;62813;51.424;6.762;2023-03-11T00:21:54;100390.91;;;2.35;85.12
9009;BME280;62813;51.424;6.762;2023-03-11T00:24:20;100402.78;;;2.39;84.35
9009;BME280;62813;51.424;6.762;2023-03-11T00:26:47;100418.31;;;2.27;84.53
9009;BME280;62813;51.424;6.762;2023-03-11T00:29:14;100404.72;;;2.22;85.33
9009;BME280;62813;51.424;6.762;2023-03-11T00:31:40;100412.38;;;2.23;85.13
9009;BME280;62813;51.424;6.762;2023-03-11T00:34:07;100408.91;;;2.29;85.10
9009;BME280;62813;51.424;6.762;2023-03-11T00:36:33;100411.47;;;2.29;84.96
9009;BME280;62813;51.424;6.762;2023-03-11T00:39:02;100415.69;;;2.31;84.80
9009;BME280;62813;51.424;6.762;2023-03-11T00:41:34;100419.09;;;2.33;84.77
9009;BME280;62813;51.424;6.762;2023-03-11T00:44:01;100419.03;;;2.38;85.12
9009;BME280;62813;51.424;6.762;2023-03-11T00:46:30;100425.91;;;2.34;85.05
9009;BME280;62813;51.424;6.762;2023-03-11T00:48:57;100420.72;;;2.39;85.05
9009;BME280;62813;51.424;6.762;2023-03-11T00:51:24;100424.09;;;2.43;84.53
9009;BME280;62813;51.424;6.762;2023-03-11T00:53:50;100425.78;;;2.44;85.02
9009;BME280;62813;51.424;6.762;2023-03-11T00:56:17;100421.50;;;2.44;83.84
9009;BME280;62813;51.424;6.762;2023-03-11T00:58:44;100424.06;;;2.47;83.51
9009;BME280;62813;51.424;6.762;2023-03-11T01:01:14;100433.44;;;2.45;83.12
9009;BME280;62813;51.424;6.762;2023-03-11T01:03:42;100429.16;;;2.49;83.41
9009;BME280;62813;51.424;6.762;2023-03-11T01:06:09;100438.44;;;2.56;83.78
9009;BME280;62813;51.424;6.762;2023-03-11T01:08:36;100442.78;;;2.51;83.05
9009;BME280;62813;51.424;6.762;2023-03-11T01:11:04;100440.97;;;2.57;82.64
9009;BME280;62813;51.424;6.762;2023-03-11T01:13:31;100434.97;;;2.58;82.48
9009;BME280;62813;51.424;6.762;2023-03-11T01:15:58;100439.22;;;2.59;82.24
9009;BME280;62813;51.424;6.762;2023-03-11T01:18:25;100437.56;;;2.57;81.81
9009;BME280;62813;51.424;6.762;2023-03-11T01:20:52;100439.25;;;2.58;82.28
9009;BME280;62813;51.424;6.762;2023-03-11T01:23:20;100439.31;;;2.55;82.51
9009;BME280;62813;51.424;6.762;2023-03-11T01:25:47;100452.09;;;2.56;82.18
9009;BME280;62813;51.424;6.762;2023-03-11T01:28:13;100446.06;;;2.59;82.93
9009;BME280;62813;51.424;6.762;2023-03-11T01:30:41;100455.53;;;2.55;83.09
9009;BME280;62813;51.424;6.762;2023-03-11T01:33:13;100451.22;;;2.57;82.67
9009;BME280;62813;51.424;6.762;2023-03-11T01:35:40;100452.84;;;2.65;82.96
9009;BME280;62813;51.424;6.762;2023-03-11T01:38:08;100459.59;;;2.70;82.84
9009;BME280;62813;51.424;6.762;2023-03-11T01:40:38;100457.00;;;2.72;82.81
9009;BME280;62813;51.424;6.762;2023-03-11T01:43:33;100461.38;;;2.65;82.53
9009;BME280;62813;51.424;6.762;2023-03-11T01:48:18;100461.44;;;2.62;82.42
9009;BME280;62813;51.424;6.762;2023-03-11T01:50:48;100470.84;;;2.61;82.25
9009;BME280;62813;51.424;6.762;2023-03-11T01:53:16;100466.56;;;2.62;82.70
9009;BME280;62813;51.424;6.762;2023-03-11T01:55:44;100471.69;;;2.62;82.98
9009;BME280;62813;51.424;6.762;2023-03-11T01:58:16;100469.09;;;2.63;83.03
9009;BME280;62813;51.424;6.762;2023-03-11T02:00:43;100480.25;;;2.61;82.62
9009;BME280;62813;51.424;6.762;2023-03-11T02:03:18;100474.25;;;2.59;82.76
9009;BME280;62813;51.424;6.762;2023-03-11T02:05:48;100470.00;;;2.58;83.03
9009;BME280;62813;51.424;6.762;2023-03-11T02:08:16;100484.56;;;2.53;83.16
9009;BME280;62813;51.424;6.762;2023-03-11T02:10:43;100482.97;;;2.47;82.95
9009;BME280;62813;51.424;6.762;2023-03-11T02:13:11;100485.47;;;2.50;83.51
9009;BME280;62813;51.424;6.762;2023-03-11T02:15:38;100480.38;;;2.49;82.88
9009;BME280;62813;51.424;6.762;2023-03-11T02:18:05;100485.50;;;2.49;82.63
9009;BME280;62813;51.424;6.762;2023-03-11T02:20:56;100483.81;;;2.48;82.79
9009;BME280;62813;51.424;6.762;2023-03-11T02:23:33;100483.00;;;2.44;82.30
9009;BME280;62813;51.424;6.762;2023-03-11T02:26:25;100483.00;;;2.43;81.32
9009;BME280;62813;51.424;6.762;2023-03-11T02:28:55;100481.41;;;2.34;81.24
9009;BME280;62813;51.424;6.762;2023-03-11T02:31:24;100482.31;;;2.30;80.77
9009;BME280;62813;51.424;6.762;2023-03-11T02:33:53;100490.88;;;2.27;81.00
9009;BME280;62813;51.424;6.762;2023-03-11T02:36:38;100483.16;;;2.29;80.92
9009;BME280;62813;51.424;6.762;2023-03-11T02:39:06;100478.97;;;2.23;80.19
9009;BME280;62813;51.424;6.762;2023-03-11T02:41:36;100488.44;;;2.18;79.72
9009;BME280;62813;51.424;6.762;2023-03-11T02:44:06;100489.25;;;2.17;79.58
9009;BME280;62813;51.424;6.762;2023-03-11T02:46:34;100488.44;;;2.18;79.39
9009;BME280;62813;51.424;6.762;2023-03-11T02:49:01;100495.28;;;2.15;79.14
9009;BME280;62813;51.424;6.762;2023-03-11T02:51:28;100490.94;;;2.21;78.90
9009;BME280;62813;51.424;6.762;2023-03-11T02:53:58;100493.50;;;2.21;78.11
9009;BME280;62813;51.424;6.762;2023-03-11T02:56:27;100492.66;;;2.21;77.61
9009;BME280;62813;51.424;6.762;2023-03-11T02:58:54;100497.75;;;2.22;76.84
9009;BME280;62813;51.424;6.762;2023-03-11T03:01:21;100502.00;;;2.23;76.98
9009;BME280;62813;51.424;6.762;2023-03-11T03:03:47;100494.41;;;2.19;76.55
9009;BME280;62813;51.424;6.762;2023-03-11T03:06:14;100494.34;;;2.22;76.91
9009;BME280;62813;51.424;6.762;2023-03-11T03:08:41;100497.88;;;2.13;76.08
9009;BME280;62813;51.424;6.762;2023-03-11T03:11:08;100498.66;;;2.20;76.41
9009;BME280;62813;51.424;6.762;2023-03-11T03:13:37;100510.66;;;2.13;76.14
9009;BME280;62813;51.424;6.762;2023-03-11T03:16:04;100497.81;;;2.19;76.55
9009;BME280;62813;51.424;6.762;2023-03-11T03:18:30;100505.47;;;2.18;75.71
9009;BME280;62813;51.424;6.762;2023-03-11T03:20:57;100511.47;;;2.17;75.13
9009;BME280;62813;51.424;6.762;2023-03-11T03:23:24;100515.75;;;2.16;75.53
9009;BME280;62813;51.424;6.762;2023-03-11T03:25:50;100519.19;;;2.14;75.17
9009;BME280;62813;51.424;6.762;2023-03-11T03:28:17;100522.63;;;2.10;74.57
9009;BME280;62813;51.424;6.762;2023-03-11T03:30:45;100521.84;;;2.06;73.89
9009;BME280;62813;51.424;6.762;2023-03-11T03:33:12;100521.03;;;1.99;74.16
9009;BME280;62813;51.424;6.762;2023-03-11T03:35:42;100528.69;;;2.04;74.68
9009;BME280;62813;51.424;6.762;2023-03-11T03:38:10;100534.66;;;2.04;74.46
9009;BME280;62813;51.424;6.762;2023-03-11T03:40:37;100526.94;;;2.06;74.83
9009;BME280;62813;51.424;6.762;2023-03-11T03:43:04;100540.66;;;1.99;74.05
9009;BME280;62813;51.424;6.762;2023-03-11T03:45:30;100540.69;;;1.94;73.97
9009;BME280;62813;51.424;6.762;2023-03-11T03:47:57;100548.41;;;1.93;73.59
9009;BME280;62813;51.424;6.762;2023-03-11T03:50:24;100543.31;;;1.91;74.38
9009;BME280;62813;51.424;6.762;2023-03-11T03:52:51;100552.69;;;1.91;74.77
9009;BME280;62813;51.424;6.762;2023-03-11T03:55:17;100551.78;;;1.98;75.13
9009;BME280;62813;51.424;6.762;2023-03-11T03:57:44;100556.03;;;1.99;74.75
9009;BME280;62813;51.424;6.762;2023-03-11T04:00:11;100563.72;;;1.96;74.71
9009;BME280;62813;51.424;6.762;2023-03-11T04:02:37;100568.81;;;1.99;74.53
9009;BME280;62813;51.424;6.762;2023-03-11T04:05:05;100572.19;;;2.04;75.05
9009;BME280;62813;51.424;6.762;2023-03-11T04:07:33;100579.84;;;2.07;75.12
9009;BME280;62813;51.424;6.762;2023-03-11T04:10:01;100572.13;;;2.10;74.76
9009;BME280;62813;51.424;6.762;2023-03-11T04:12:28;100568.75;;;2.08;74.93
9009;BME280;62813;51.424;6.762;2023-03-11T04:14:55;100573.00;;;2.09;75.06
9009;BME280;62813;51.424;6.762;2023-03-11T04:17:21;100573.03;;;2.06;74.77
9009;BME280;62813;51.424;6.762;2023-03-11T04:19:48;100579.84;;;2.07;74.65
9009;BME280;62813;51.424;6.762;2023-03-11T04:22:14;100577.31;;;2.05;74.44
9009;BME280;62813;51.424;6.762;2023-03-11T04:24:42;100583.28;;;2.03;74.56
9009;BME280;62813;51.424;6.762;2023-03-11T04:27:08;100590.97;;;2.01;74.60
9009;BME280;62813;51.424;6.762;2023-03-11T04:29:35;100587.59;;;1.96;74.84
9009;BME280;62813;51.424;6.762;2023-03-11T04:32:01;100599.53;;;1.99;75.00
9009;BME280;62813;51.424;6.762;2023-03-11T04:34:28;100596.09;;;2.01;75.17
9009;BME280;62813;51.424;6.762;2023-03-11T04:36:54;100597.00;;;1.99;75.37
9009;BME280;62813;51.424;6.762;2023-03-11T04:39:21;100595.28;;;1.96;75.57
9009;BME280;62813;51.424;6.762;2023-03-11T04:41:47;100600.41;;;1.98;75.70
9009;BME280;62813;51.424;6.762;2023-03-11T04:44:15;100601.31;;;1.89;75.30
9009;BME280;62813;51.424;6.762;2023-03-11T04:46:41;100608.13;;;1.93;75.21
9009;BME280;62813;51.424;6.762;2023-03-11T04:49:09;100613.25;;;1.89;75.31
9009;BME280;62813;51.424;6.762;2023-03-11T04:51:35;100614.94;;;1.90;74.52
9009;BME280;62813;51.424;6.762;2023-03-11T04:54:02;100617.50;;;1.90;74.85
9009;BME280;62813;51.424;6.762;2023-03-11T04:56:29;100620.03;;;1.96;74.71
9009;BME280;62813;51.424;6.762;2023-03-11T04:58:55;100625.16;;;1.94;73.91
9009;BME280;62813;51.424;6.762;2023-03-11T05:01:24;100617.50;;;1.90;74.91
9009;BME280;62813;51.424;6.762;2023-03-11T05:03:50;100629.41;;;1.97;75.29
9009;BME280;62813;51.424;6.762;2023-03-11T05:06:17;100626.94;;;1.88;74.72
9009;BME280;62813;51.424;6.762;2023-03-11T05:08:43;100630.28;;;1.96;75.28
9009;BME280;62813;51.424;6.762;2023-03-11T05:11:10;100625.13;;;2.00;75.55
9009;BME280;62813;51.424;6.762;2023-03-11T05:13:37;100625.94;;;2.07;75.97
9009;BME280;62813;51.424;6.762;2023-03-11T05:16:03;100631.88;;;2.12;76.11
9009;BME280;62813;51.424;6.762;2023-03-11T05:18:30;100629.25;;;2.15;76.19
9009;BME280;62813;51.424;6.762;2023-03-11T05:20:57;100636.91;;;2.20;76.13
9009;BME280;62813;51.424;6.762;2023-03-11T05:23:24;100628.34;;;2.24;75.46
9009;BME280;62813;51.424;6.762;2023-03-11T05:25:51;100630.91;;;2.22;74.97
9009;BME280;62813;51.424;6.762;2023-03-11T05:28:17;100636.03;;;2.22;74.88
9009;BME280;62813;51.424;6.762;2023-03-11T05:30:44;100637.72;;;2.23;74.69
9009;BME280;62813;51.424;6.762;2023-03-11T05:33:10;100641.16;;;2.22;74.87
9009;BME280;62813;51.424;6.762;2023-03-11T05:35:38;100640.28;;;2.23;75.34
9009;BME280;62813;51.424;6.762;2023-03-11T05:38:04;100639.47;;;2.21;75.18
9009;BME280;62813;51.424;6.762;2023-03-11T05:40:31;100648.88;;;2.19;74.79
9009;BME280;62813;51.424;6.762;2023-03-11T05:42:57;100651.44;;;2.18;75.12
9009;BME280;62813;51.424;6.762;2023-03-11T05:45:26;100645.47;;;2.17;75.20
9009;BME280;62813;51.424;6.762;2023-03-11T05:47:53;100648.84;;;2.21;75.76
9009;BME280;62813;51.424;6.762;2023-03-11T05:50:19;100651.41;;;2.22;75.76
9009;BME280;62813;51.424;6.762;2023-03-11T05:52:46;100648.84;;;2.21;75.75
9009;BME280;62813;51.424;6.762;2023-03-11T05:55:12;100645.41;;;2.23;76.00
9009;BME280;62813;51.424;6.762;2023-03-11T05:57:39;100654.78;;;2.24;75.48
9009;BME280;62813;51.424;6.762;2023-03-11T06:00:06;100654.81;;;2.21;75.02
9009;BME280;62813;51.424;6.762;2023-03-11T06:02:38;100663.38;;;2.20;75.20
9009;BME280;62813;51.424;6.762;2023-03-11T06:05:06;100661.63;;;2.24;75.81
9009;BME280;62813;51.424;6.762;2023-03-11T06:07:34;100671.00;;;2.23;75.18
9009;BME280;62813;51.424;6.762;2023-03-11T06:10:03;100665.03;;;2.24;75.18
9009;BME280;62813;51.424;6.762;2023-03-11T06:12:29;100668.44;;;2.26;75.21
9009;BME280;62813;51.424;6.762;2023-03-11T06:14:56;100665.88;;;2.25;75.17
9009;BME280;62813;51.424;6.762;2023-03-11T06:17:22;100670.13;;;2.29;75.36
9009;BME280;62813;51.424;6.762;2023-03-11T06:19:49;100671.00;;;2.23;74.75
9009;BME280;62813;51.424;6.762;2023-03-11T06:22:16;100677.00;;;2.22;75.30
9009;BME280;62813;51.424;6.762;2023-03-11T06:24:42;100684.66;;;2.24;75.35
9009;BME280;62813;51.424;6.762;2023-03-11T06:27:09;100694.06;;;2.26;75.23
9009;BME280;62813;51.424;6.762;2023-03-11T06:29:36;100690.63;;;2.27;75.26
9009;BME280;62813;51.424;6.762;2023-03-11T06:32:03;100700.03;;;2.27;75.17
9009;BME280;62813;51.424;6.762;2023-03-11T06:34:29;100694.06;;;2.26;74.99
9009;BME280;62813;51.424;6.762;2023-03-11T06:36:56;100697.50;;;2.22;74.84
9009;BME280;62813;51.424;6.762;2023-03-11T06:39:24;100701.88;;;2.11;74.73
9009;BME280;62813;51.424;6.762;2023-03-11T06:41:51;100701.88;;;2.11;74.96
9009;BME280;62813;51.424;6.762;2023-03-11T06:44:17;100711.25;;;2.12;75.15
9009;BME280;62813;51.424;6.762;2023-03-11T06:46:44;100719.78;;;2.11;74.79
9009;BME280;62813;51.424;6.762;2023-03-11T06:49:10;100711.22;;;2.14;75.19
9009;BME280;62813;51.424;6.762;2023-03-11T06:51:37;100721.41;;;2.20;75.57
9009;BME280;62813;51.424;6.762;2023-03-11T06:54:04;100715.41;;;2.25;75.86
9009;BME280;62813;51.424;6.762;2023-03-11T06:56:30;100720.44;;;2.36;75.58
9009;BME280;62813;51.424;6.762;2023-03-11T06:58:57;100728.97;;;2.40;74.35
9009;BME280;62813;51.424;6.762;2023-03-11T07:01:24;100735.72;;;2.48;74.66
9009;BME280;62813;51.424;6.762;2023-03-11T07:03:52;100739.09;;;2.50;73.80
9009;BME280;62813;51.424;6.762;2023-03-11T07:06:21;100751.84;;;2.58;73.12
9009;BME280;62813;51.424;6.762;2023-03-11T07:08:49;100751.81;;;2.64;73.22
9009;BME280;62813;51.424;6.762;2023-03-11T07:11:18;100759.44;;;2.70;73.58
9009;BME280;62813;51.424;6.762;2023-03-11T07:13:46;100767.88;;;2.83;73.49
9009;BME280;62813;51.424;6.762;2023-03-11T07:16:18;100761.88;;;2.85;73.11
9009;BME280;62813;51.424;6.762;2023-03-11T07:18:47;100777.16;;;2.96;72.60
9009;BME280;62813;51.424;6.762;2023-03-11T07:21:17;100771.19;;;2.96;72.20
9009;BME280;62813;51.424;6.762;2023-03-11T07:23:44;100778.00;;;2.97;71.99
9009;BME280;62813;51.424;6.762;2023-03-11T07:26:13;100783.13;;;2.97;70.85
9009;BME280;62813;51.424;6.762;2023-03-11T07:28:40;100783.97;;;2.99;71.06
9009;BME280;62813;51.424;6.762;2023-03-11T07:31:08;100791.63;;;3.02;71.64
9009;BME280;62813;51.424;6.762;2023-03-11T07:33:35;100788.22;;;3.00;71.69
9009;BME280;62813;51.424;6.762;2023-03-11T07:36:10;100794.22;;;2.99;72.77
9009;BME280;62813;51.424;6.762;2023-03-11T07:38:37;100795.03;;;3.05;72.56
9009;BME280;62813;51.424;6.762;2023-03-11T07:41:04;100801.97;;;2.96;72.26
9009;BME280;62813;51.424;6.762;2023-03-11T07:43:32;100806.97;;;3.06;71.88
9009;BME280;62813;51.424;6.762;2023-03-11T07:48:30;100813.59;;;3.29;71.09
9009;BME280;62813;51.424;6.762;2023-03-11T07:51:18;100812.72;;;3.31;71.31
9009;BME280;62813;51.424;6.762;2023-03-11T07:53:45;100817.00;;;3.29;70.60
9009;BME280;62813;51.424;6.762;2023-03-11T07:56:14;100816.94;;;3.38;70.37
9009;BME280;62813;51.424;6.762;2023-03-11T07:58:41;100818.72;;;3.32;70.28
9009;BME280;62813;51.424;6.762;2023-03-11T08:01:16;100823.00;;;3.31;70.42
9009;BME280;62813;51.424;6.762;2023-03-11T08:03:44;100817.75;;;3.40;70.40
9009;BME280;62813;51.424;6.762;2023-03-11T08:06:14;100827.91;;;3.50;70.31
9009;BME280;62813;51.424;6.762;2023-03-11T08:08:41;100828.69;;;3.59;69.95
9009;BME280;62813;51.424;6.762;2023-03-11T08:11:09;100836.19;;;3.73;69.72
9009;BME280;62813;51.424;6.762;2023-03-11T08:13:36;100829.31;;;3.78;69.54
9009;BME280;62813;51.424;6.762;2023-03-11T08:16:03;100834.38;;;3.84;69.66
9009;BME280;62813;51.424;6.762;2023-03-11T08:18:30;100840.22;;;3.97;69.15
9009;BME280;62813;51.424;6.762;2023-03-11T08:20:57;100834.09;;;4.06;68.75
9009;BME280;62813;51.424;6.762;2023-03-11T08:23:24;100841.75;;;4.10;68.20
9009;BME280;62813;51.424;6.762;2023-03-11T08:25:51;100842.63;;;4.08;66.79
9009;BME280;62813;51.424;6.762;2023-03-11T08:28:17;100839.16;;;4.12;66.78
9009;BME280;62813;51.424;6.762;2023-03-11T08:30:44;100832.22;;;4.18;67.72
9009;BME280;62813;51.424;6.762;2023-03-11T08:33:11;100840.84;;;4.16;66.75
9009;BME280;62813;51.424;6.762;2023-03-11T08:35:37;100850.34;;;4.09;66.94
9009;BME280;62813;51.424;6.762;2023-03-11T08:38:04;100844.22;;;4.18;67.17
9009;BME280;62813;51.424;6.762;2023-03-11T08:40:31;100847.47;;;4.29;66.79
9009;BME280;62813;51.424;6.762;2023-03-11T08:42:58;100843.28;;;4.25;62.81
9009;BME280;62813;51.424;6.762;2023-03-11T08:45:24;100844.16;;;4.21;61.80
9009;BME280;62813;51.424;6.762;2023-03-11T08:47:51;100836.34;;;4.30;62.48
9009;BME280;62813;51.424;6.762;2023-03-11T08:50:18;100837.94;;;4.39;62.71
9009;BME280;62813;51.424;6.762;2023-03-11T08:52:45;100830.16;;;4.45;62.49
9009;BME280;62813;51.424;6.762;2023-03-11T08:55:16;100836.03;;;4.53;62.41
9009;BME280;62813;51.424;6.762;2023-03-11T08:57:50;100843.63;;;4.61;62.44
9009;BME280;62813;51.424;6.762;2023-03-11T09:00:17;100852.13;;;4.66;61.37
9009;BME280;62813;51.424;6.762;2023-03-11T09:02:44;100852.25;;;4.55;60.70
9009;BME280;62813;51.424;6.762;2023-03-11T09:05:11;100849.66;;;4.58;60.45
9009;BME280;62813;51.424;6.762;2023-03-11T09:07:38;100846.81;;;4.75;60.53
9009;BME280;62813;51.424;6.762;2023-03-11T09:10:05;100849.31;;;4.81;60.25
9009;BME280;62813;51.424;6.762;2023-03-11T09:12:32;100851.91;;;4.78;59.39
9009;BME280;62813;51.424;6.762;2023-03-11T09:14:59;100844.50;;;4.60;58.36
9009;BME280;62813;51.424;6.762;2023-03-11T09:17:25;100839.53;;;4.47;56.42
9009;BME280;62813;51.424;6.762;2023-03-11T09:19:52;100840.47;;;4.40;57.43
9009;BME280;62813;51.424;6.762;2023-03-11T09:22:19;100840.66;;;4.26;56.30
9009;BME280;62813;51.424;6.762;2023-03-11T09:24:45;100843.22;;;4.30;56.88
9009;BME280;62813;51.424;6.762;2023-03-11T09:27:12;100850.00;;;4.34;57.49
9009;BME280;62813;51.424;6.762;2023-03-11T09:29:41;100855.31;;;4.20;55.18
9009;BME280;62813;51.424;6.762;2023-03-11T09:32:11;100866.53;;;4.16;54.63
9009;BME280;62813;51.424;6.762;2023-03-11T09:34:38;100880.13;;;4.22;54.74
9009;BME280;62813;51.424;6.762;2023-03-11T09:37:05;100870.72;;;4.20;54.47
9009;BME280;62813;51.424;6.762;2023-03-11T09:39:32;100875.00;;;4.21;54.75
9009;BME280;62813;51.424;6.762;2023-03-11T09:42:19;100873.34;;;4.15;51.53
9009;BME280;62813;51.424;6.762;2023-03-11T09:44:58;100870.84;;;4.12;50.14
9009;BME280;62813;51.424;6.762;2023-03-11T09:50:13;100869.97;;;4.12;50.09
9009;BME280;62813;51.424;6.762;2023-03-11T09:55:23;100879.09;;;4.37;50.67
9009;BME280;62813;51.424;6.762;2023-03-11T09:57:53;100864.31;;;4.51;52.41
9009;BME280;62813;51.424;6.762;2023-03-11T10:00:23;100874.50;;;4.57;52.17
9009;BME280;62813;51.424;6.762;2023-03-11T10:02:50;100881.97;;;4.74;52.26
9009;BME280;62813;51.424;6.762;2023-03-11T10:05:22;100883.56;;;4.83;51.26
9009;BME280;62813;51.424;6.762;2023-03-11T10:08:01;100890.28;;;4.92;50.68
9009;BME280;62813;51.424;6.762;2023-03-11T10:10:36;100883.34;;;4.97;48.83
9009;BME280;62813;51.424;6.762;2023-03-11T10:13:44;100887.63;;;4.96;49.52
9009;BME280;62813;51.424;6.762;2023-03-11T10:16:17;100884.91;;;5.05;50.77
9009;BME280;62813;51.424;6.762;2023-03-11T10:27:29;100892.53;;;5.11;49.12
9009;BME280;62813;51.424;6.762;2023-03-11T10:30:27;100883.94;;;5.13;49.60
9009;BME280;62813;51.424;6.762;2023-03-11T10:33:03;100890.50;;;5.30;49.62
9009;BME280;62813;51.424;6.762;2023-03-11T10:35:45;100887.00;;;5.36;49.21
9009;BME280;62813;51.424;6.762;2023-03-11T10:38:17;100889.94;;;5.13;50.40
9009;BME280;62813;51.424;6.762;2023-03-11T10:40:46;100898.66;;;5.04;49.27
9009;BME280;62813;51.424;6.762;2023-03-11T10:43:16;100895.34;;;4.96;48.59
9009;BME280;62813;51.424;6.762;2023-03-11T10:45:45;100906.41;;;5.03;48.59
9009;BME280;62813;51.424;6.762;2023-03-11T10:48:15;100912.44;;;4.99;47.96
9009;BME280;62813;51.424;6.762;2023-03-11T10:50:54;100899.72;;;4.91;46.92
9009;BME280;62813;51.424;6.762;2023-03-11T10:53:22;100901.28;;;5.01;47.50
9009;BME280;62813;51.424;6.762;2023-03-11T10:55:51;100907.19;;;5.06;47.79
9009;BME280;62813;51.424;6.762;2023-03-11T10:58:21;100906.38;;;5.04;47.22
9009;BME280;62813;51.424;6.762;2023-03-11T11:01:18;100904.63;;;5.08;47.95
9009;BME280;62813;51.424;6.762;2023-03-11T11:03:49;100902.97;;;5.02;46.96
9009;BME280;62813;51.424;6.762;2023-03-11T11:09:05;100891.41;;;4.74;47.55
9009;BME280;62813;51.424;6.762;2023-03-11T11:11:32;100899.91;;;4.77;47.94
9009;BME280;62813;51.424;6.762;2023-03-11T11:14:04;100900.56;;;4.92;48.18
9009;BME280;62813;51.424;6.762;2023-03-11T11:16:32;100906.44;;;5.01;48.83
9009;BME280;62813;51.424;6.762;2023-03-11T11:19:03;100905.38;;;5.15;47.58
9009;BME280;62813;51.424;6.762;2023-03-11T11:21:37;100895.78;;;5.23;47.12
9009;BME280;62813;51.424;6.762;2023-03-11T11:24:23;100894.09;;;5.20;47.32
9009;BME280;62813;51.424;6.762;2023-03-11T11:27:22;100900.06;;;5.24;46.39
9009;BME280;62813;51.424;6.762;2023-03-11T11:30:13;100906.22;;;5.14;46.10
9009;BME280;62813;51.424;6.762;2023-03-11T11:32:41;100907.91;;;5.16;46.63
9009;BME280;62813;51.424;6.762;2023-03-11T11:35:15;100909.66;;;5.13;46.49
9009;BME280;62813;51.424;6.762;2023-03-11T11:37:46;100907.75;;;5.25;46.13
9009;BME280;62813;51.424;6.762;2023-03-11T11:43:23;100898.81;;;5.46;45.23
9009;BME280;62813;51.424;6.762;2023-03-11T11:45:59;100894.41;;;5.53;45.59
9009;BME280;62813;51.424;6.762;2023-03-11T11:48:45;100888.44;;;5.51;44.74
9009;BME280;62813;51.424;6.762;2023-03-11T11:51:23;100895.44;;;5.44;45.66
9009;BME280;62813;51.424;6.762;2023-03-11T11:54:01;100898.63;;;5.55;47.49
9009;BME280;62813;51.424;6.762;2023-03-11T11:56:32;100895.03;;;5.65;47.26
9009;BME280;62813;51.424;6.762;2023-03-11T11:58:59;100888.19;;;5.63;47.36
9009;BME280;62813;51.424;6.762;2023-03-11T12:01:37;100888.78;;;5.77;48.40
9009;BME280;62813;51.424;6.762;2023-03-11T12:07:03;100894.44;;;5.96;47.30
9009;BME280;62813;51.424;6.762;2023-03-11T12:15:18;100893.78;;;5.86;45.95
9009;BME280;62813;51.424;6.762;2023-03-11T12:17:49;100898.03;;;5.89;46.33
9009;BME280;62813;51.424;6.762;2023-03-11T12:23:02;100906.94;;;5.73;46.39
9009;BME280;62813;51.424;6.762;2023-03-11T12:31:11;100918.25;;;5.64;46.87
9009;BME280;62813;51.424;6.762;2023-03-11T12:33:49;100902.06;;;5.57;46.52
9009;BME280;62813;51.424;6.762;2023-03-11T12:36:37;100908.78;;;5.64;45.55
9009;BME280;62813;51.424;6.762;2023-03-11T12:39:07;100911.75;;;5.43;47.32
9009;BME280;62813;51.424;6.762;2023-03-11T12:41:45;100910.81;;;5.47;48.52
9009;BME280;62813;51.424;6.762;2023-03-11T12:44:29;100901.47;;;5.43;48.81
9009;BME280;62813;51.424;6.762;2023-03-11T12:47:00;100905.03;;;5.33;49.40
9009;BME280;62813;51.424;6.762;2023-03-11T12:49:32;100897.44;;;5.27;48.90
9009;BME280;62813;51.424;6.762;2023-03-11T12:54:46;100906.84;;;5.29;48.92
9009;BME280;62813;51.424;6.762;2023-03-11T13:03:00;100898.88;;;5.43;48.65
9009;BME280;62813;51.424;6.762;2023-03-11T13:05:56;100899.56;;;5.53;47.73
9009;BME280;62813;51.424;6.762;2023-03-11T13:08:26;100898.72;;;5.52;47.65
9009;BME280;62813;51.424;6.762;2023-03-11T13:10:58;100896.94;;;5.54;47.49
9009;BME280;62813;51.424;6.762;2023-03-11T13:18:39;100878.97;;;5.53;47.07
9009;BME280;62813;51.424;6.762;2023-03-11T13:27:01;100885.53;;;5.20;46.70
9009;BME280;62813;51.424;6.762;2023-03-11T13:29:53;100893.22;;;5.23;47.40
9009;BME280;62813;51.424;6.762;2023-03-11T13:38:33;100880.13;;;5.35;47.65
9009;BME280;62813;51.424;6.762;2023-03-11T13:41:14;100882.69;;;5.35;47.42
9009;BME280;62813;51.424;6.762;2023-03-11T13:43:44;100884.25;;;5.45;47.54
9009;BME280;62813;51.424;6.762;2023-03-11T13:46:22;100879.84;;;5.52;48.46
9009;BME280;62813;51.424;6.762;2023-03-11T13:48:55;100888.41;;;5.52;46.81
9009;BME280;62813;51.424;6.762;2023-03-11T13:51:39;100887.75;;;5.43;46.93
9009;BME280;62813;51.424;6.762;2023-03-11T13:56:49;100892.75;;;5.50;45.98
9009;BME280;62813;51.424;6.762;2023-03-11T13:59:24;100882.34;;;5.56;46.08
9009;BME280;62813;51.424;6.762;2023-03-11T14:02:15;100892.53;;;5.61;46.76
9009;BME280;62813;51.424;6.762;2023-03-11T14:05:05;100895.81;;;5.69;47.00
9009;BME280;62813;51.424;6.762;2023-03-11T14:07:33;100902.66;;;5.72;47.43
9009;BME280;62813;51.424;6.762;2023-03-11T14:10:21;100895.88;;;5.66;45.66
9009;BME280;62813;51.424;6.762;2023-03-11T14:12:48;100890.66;;;5.71;45.60
9009;BME280;62813;51.424;6.762;2023-03-11T14:15:23;100899.25;;;5.70;46.45
9009;BME280;62813;51.424;6.762;2023-03-11T14:17:52;100896.63;;;5.73;47.29
9009;BME280;62813;51.424;6.762;2023-03-11T14:20:22;100896.63;;;5.73;47.20
9009;BME280;62813;51.424;6.762;2023-03-11T14:22:52;100901.72;;;5.76;47.62
9009;BME280;62813;51.424;6.762;2023-03-11T14:25:25;100896.44;;;5.82;47.85
9009;BME280;62813;51.424;6.762;2023-03-11T14:27:57;100899.97;;;5.78;47.58
9009;BME280;62813;51.424;6.762;2023-03-11T14:30:27;100905.97;;;5.77;47.00
9009;BME280;62813;51.424;6.762;2023-03-11T14:33:03;100907.56;;;5.84;47.14
9009;BME280;62813;51.424;6.762;2023-03-11T14:35:32;100901.59;;;5.82;47.34